Time,TemperatureF,DewpointF,PressureIn,WindDirection,WindDirectionDegrees,WindSpeedMPH,WindSpeedGustMPH,Humidity,HourlyPrecipIn,Conditions,Clouds,dailyrainin,SolarRadiationWatts/m^2,SoftwareType,DateUTC
2013-02-24 00:01:00,28.0,21.0,-100.00,SW,215,3.0,4.0,74,0.00,,,0.09,0.000000,,2013-02-24 06:01:00,
2013-02-24 00:11:00,28.0,21.0,-100.00,SW,215,3.0,4.0,74,0.00,,,0.09,0.000000,,2013-02-24 06:11:00,
2013-02-24 00:21:00,28.0,21.0,-100.00,SW,215,3.0,4.0,74,0.00,,,0.09,0.000000,,2013-02-24 06:21:00,
2013-02-24 00:42:00,25.0,20.0,-100.00,WSW,250,2.0,4.0,81,0.00,,,0.09,0.000000,,2013-02-24 06:42:00,
2013-02-24 00:52:00,25.0,20.0,-100.00,WSW,250,2.0,4.0,81,0.00,,,0.09,0.000000,,2013-02-24 06:52:00,
2013-02-24 01:01:00,25.0,20.0,-100.00,WSW,250,2.0,4.0,81,0.00,,,0.09,0.000000,,2013-02-24 07:01:00,
2013-02-24 01:12:00,25.0,20.0,-100.00,WSW,250,2.0,4.0,81,0.00,,,0.09,0.000000,,2013-02-24 07:12:00,
2013-02-24 01:21:00,25.0,20.0,-100.00,WSW,250,2.0,4.0,81,0.00,,,0.09,0.000000,,2013-02-24 07:21:00,
2013-02-24 01:42:00,25.0,20.0,-100.00,WSW,248,2.0,3.0,81,0.00,,,0.09,0.000000,,2013-02-24 07:42:00,
2013-02-24 01:52:00,25.0,20.0,-100.00,WSW,248,2.0,3.0,81,0.00,,,0.09,0.000000,,2013-02-24 07:52:00,
2013-02-24 02:01:00,25.0,20.0,-100.00,WSW,248,2.0,3.0,81,0.00,,,0.09,0.000000,,2013-02-24 08:01:00,
2013-02-24 02:11:00,25.0,20.0,-100.00,WSW,248,2.0,3.0,81,0.00,,,0.09,0.000000,,2013-02-24 08:11:00,
2013-02-24 02:22:00,25.0,20.0,-100.00,WSW,248,2.0,3.0,81,0.00,,,0.09,0.000000,,2013-02-24 08:22:00,
2013-02-24 02:42:00,23.0,19.0,-100.00,NW,311,2.0,2.0,85,0.00,,,0.09,0.000000,,2013-02-24 08:42:00,
2013-02-24 02:54:00,23.0,19.0,-100.00,NW,311,2.0,2.0,85,0.00,,,0.09,0.000000,,2013-02-24 08:54:00,
2013-02-24 03:01:00,23.0,19.0,-100.00,NW,311,2.0,2.0,85,0.00,,,0.09,0.000000,,2013-02-24 09:01:00,
2013-02-24 03:11:00,23.0,19.0,-100.00,NW,311,2.0,2.0,85,0.00,,,0.09,0.000000,,2013-02-24 09:11:00,
2013-02-24 03:21:00,23.0,19.0,-100.00,NW,311,2.0,2.0,85,0.00,,,0.09,0.000000,,2013-02-24 09:21:00,
2013-02-24 03:42:00,24.0,20.0,-100.00,WSW,255,1.0,2.0,85,0.00,,,0.09,0.000000,,2013-02-24 09:42:00,
2013-02-24 03:52:00,24.0,20.0,-100.00,WSW,255,1.0,2.0,85,0.00,,,0.09,0.000000,,2013-02-24 09:52:00,
2013-02-24 04:01:00,24.0,20.0,-100.00,WSW,255,1.0,2.0,85,0.00,,,0.09,0.000000,,2013-02-24 10:01:00,
2013-02-24 04:11:00,24.0,20.0,-100.00,WSW,255,1.0,2.0,85,0.00,,,0.09,0.000000,,2013-02-24 10:11:00,
2013-02-24 04:21:00,24.0,20.0,-100.00,WSW,255,1.0,2.0,85,0.00,,,0.09,0.000000,,2013-02-24 10:21:00,
2013-02-24 04:42:00,24.0,20.0,-100.00,WSW,245,2.0,2.0,85,0.00,,,0.09,0.000000,,2013-02-24 10:42:00,
2013-02-24 04:52:00,24.0,20.0,-100.00,WSW,245,2.0,2.0,85,0.00,,,0.09,0.000000,,2013-02-24 10:52:00,
2013-02-24 05:01:00,24.0,20.0,-100.00,WSW,245,2.0,2.0,85,0.00,,,0.09,0.000000,,2013-02-24 11:01:00,
2013-02-24 05:11:00,24.0,20.0,-100.00,WSW,245,2.0,2.0,85,0.00,,,0.09,0.000000,,2013-02-24 11:11:00,
2013-02-24 05:21:00,24.0,20.0,-100.00,WSW,245,2.0,2.0,85,0.00,,,0.09,0.000000,,2013-02-24 11:21:00,
2013-02-24 05:42:00,24.0,22.0,-100.00,NNW,335,2.0,3.0,90,0.00,,,0.09,0.000000,,2013-02-24 11:42:00,
2013-02-24 05:53:00,24.0,22.0,-100.00,NNW,335,2.0,3.0,90,0.00,,,0.09,0.000000,,2013-02-24 11:53:00,
2013-02-24 06:01:00,24.0,22.0,-100.00,NNW,335,2.0,3.0,90,0.00,,,0.09,0.000000,,2013-02-24 12:01:00,
2013-02-24 06:11:00,24.0,22.0,-100.00,NNW,335,2.0,3.0,90,0.00,,,0.09,0.000000,,2013-02-24 12:11:00,
2013-02-24 06:21:00,24.0,22.0,-100.00,NNW,335,2.0,3.0,90,0.00,,,0.09,0.000000,,2013-02-24 12:21:00,
2013-02-24 06:23:00,27.0,24.0,-100.00,North,355,3.0,5.0,87,0.00,,,0.09,0.000000,,2013-02-24 12:23:00,
2013-02-24 06:46:00,27.0,24.0,-100.00,North,355,3.0,5.0,87,0.00,,,0.09,0.000000,,2013-02-24 12:46:00,
2013-02-24 06:57:00,27.0,24.0,-100.00,North,355,3.0,5.0,87,0.00,,,0.09,0.000000,,2013-02-24 12:57:00,
2013-02-24 07:12:00,27.0,24.0,-100.00,North,355,3.0,5.0,87,0.00,,,0.09,0.000000,,2013-02-24 13:12:00,
2013-02-24 07:23:00,26.0,23.0,-100.00,NNW,338,3.0,5.0,87,0.00,,,0.09,0.000000,,2013-02-24 13:23:00,
2013-02-24 07:45:00,26.0,23.0,-100.00,NNW,338,3.0,5.0,87,0.00,,,0.09,0.000000,,2013-02-24 13:45:00,
2013-02-24 07:55:00,26.0,23.0,-100.00,NNW,338,3.0,5.0,87,0.00,,,0.09,0.000000,,2013-02-24 13:55:00,
2013-02-24 08:04:00,26.0,23.0,-100.00,NNW,338,3.0,5.0,87,0.00,,,0.09,0.000000,,2013-02-24 14:04:00,
2013-02-24 08:13:00,26.0,23.0,-100.00,NNW,338,3.0,5.0,87,0.00,,,0.09,0.000000,,2013-02-24 14:13:00,
2013-02-24 08:45:00,28.0,23.0,-100.00,North,355,2.0,5.0,81,0.00,,,0.09,50.000000,,2013-02-24 14:45:00,
2013-02-24 08:54:00,28.0,23.0,-100.00,North,355,2.0,5.0,81,0.00,,,0.09,50.000000,,2013-02-24 14:54:00,
2013-02-24 09:03:00,28.0,23.0,-100.00,North,355,2.0,5.0,81,0.00,,,0.09,50.000000,,2013-02-24 15:03:00,
2013-02-24 09:13:00,28.0,23.0,-100.00,North,355,2.0,5.0,81,0.00,,,0.09,50.000000,,2013-02-24 15:13:00,
2013-02-24 09:22:00,28.0,23.0,-100.00,North,355,2.0,5.0,81,0.00,,,0.09,50.000000,,2013-02-24 15:22:00,
2013-02-24 09:42:00,28.0,22.0,-100.00,NNW,343,4.0,6.0,79,0.00,,,0.09,153.000000,,2013-02-24 15:42:00,
2013-02-24 09:53:00,28.0,22.0,-100.00,NNW,343,4.0,6.0,79,0.00,,,0.09,153.000000,,2013-02-24 15:53:00,
2013-02-24 10:01:00,28.0,22.0,-100.00,NNW,343,4.0,6.0,79,0.00,,,0.09,153.000000,,2013-02-24 16:01:00,
2013-02-24 10:11:00,28.0,22.0,-100.00,NNW,343,4.0,6.0,79,0.00,,,0.09,153.000000,,2013-02-24 16:11:00,
2013-02-24 10:21:00,28.0,22.0,-100.00,NNW,343,4.0,6.0,79,0.00,,,0.09,153.000000,,2013-02-24 16:21:00,
2013-02-24 10:42:00,32.0,23.0,-100.00,NNE,17,3.0,5.0,69,0.00,,,0.09,297.000000,,2013-02-24 16:42:00,
2013-02-24 10:52:00,32.0,23.0,-100.00,NNE,17,3.0,5.0,69,0.00,,,0.09,297.000000,,2013-02-24 16:52:00,
2013-02-24 11:01:00,32.0,23.0,-100.00,NNE,17,3.0,5.0,69,0.00,,,0.09,297.000000,,2013-02-24 17:01:00,
2013-02-24 11:11:00,32.0,23.0,-100.00,NNE,17,3.0,5.0,69,0.00,,,0.09,297.000000,,2013-02-24 17:11:00,
2013-02-24 11:21:00,32.0,23.0,-100.00,NNE,17,3.0,5.0,69,0.00,,,0.09,297.000000,,2013-02-24 17:21:00,
2013-02-24 11:42:00,33.0,23.0,-100.00,North,9,4.0,6.0,65,0.00,,,0.08,431.000000,,2013-02-24 17:42:00,
2013-02-24 11:53:00,33.0,23.0,-100.00,North,9,4.0,6.0,65,0.00,,,0.08,431.000000,,2013-02-24 17:53:00,
2013-02-24 12:01:00,33.0,23.0,-100.00,North,9,4.0,6.0,65,0.00,,,0.08,431.000000,,2013-02-24 18:01:00,
2013-02-24 12:11:00,33.0,23.0,-100.00,North,9,4.0,6.0,65,0.00,,,0.08,431.000000,,2013-02-24 18:11:00,
2013-02-24 12:22:00,33.0,23.0,-100.00,North,9,4.0,6.0,65,0.00,,,0.08,431.000000,,2013-02-24 18:22:00,
2013-02-24 12:42:00,33.0,23.0,-100.00,North,3,4.0,6.0,67,0.00,,,0.08,451.000000,,2013-02-24 18:42:00,
2013-02-24 12:52:00,33.0,23.0,-100.00,North,3,4.0,6.0,67,0.00,,,0.08,451.000000,,2013-02-24 18:52:00,
2013-02-24 13:01:00,33.0,23.0,-100.00,North,3,4.0,6.0,67,0.00,,,0.08,451.000000,,2013-02-24 19:01:00,
2013-02-24 13:11:00,33.0,23.0,-100.00,North,3,4.0,6.0,67,0.00,,,0.08,451.000000,,2013-02-24 19:11:00,
2013-02-24 13:22:00,33.0,23.0,-100.00,North,3,4.0,6.0,67,0.00,,,0.08,451.000000,,2013-02-24 19:22:00,
2013-02-24 13:42:00,33.0,23.0,-100.00,North,352,4.0,7.0,65,0.00,,,0.04,348.000000,,2013-02-24 19:42:00,
2013-02-24 13:52:00,33.0,23.0,-100.00,North,352,4.0,7.0,65,0.00,,,0.04,348.000000,,2013-02-24 19:52:00,
2013-02-24 14:02:00,33.0,23.0,-100.00,North,352,4.0,7.0,65,0.00,,,0.04,348.000000,,2013-02-24 20:02:00,
2013-02-24 14:11:00,33.0,23.0,-100.00,North,352,4.0,7.0,65,0.00,,,0.04,348.000000,,2013-02-24 20:11:00,
2013-02-24 14:21:00,33.0,23.0,-100.00,North,352,4.0,7.0,65,0.00,,,0.04,348.000000,,2013-02-24 20:21:00,
2013-02-24 14:42:00,34.0,24.0,-100.00,NNW,341,4.0,7.0,67,0.00,,,0.01,339.000000,,2013-02-24 20:42:00,
2013-02-24 14:52:00,34.0,24.0,-100.00,NNW,341,4.0,7.0,67,0.00,,,0.01,339.000000,,2013-02-24 20:52:00,
2013-02-24 15:02:00,34.0,24.0,-100.00,NNW,341,4.0,7.0,67,0.00,,,0.01,339.000000,,2013-02-24 21:02:00,
2013-02-24 15:11:00,34.0,24.0,-100.00,NNW,341,4.0,7.0,67,0.00,,,0.01,339.000000,,2013-02-24 21:11:00,
2013-02-24 15:21:00,34.0,24.0,-100.00,NNW,341,4.0,7.0,67,0.00,,,0.01,339.000000,,2013-02-24 21:21:00,
2013-02-24 15:42:00,35.0,25.0,-100.00,North,354,4.0,7.0,66,0.00,,,0.00,294.000000,,2013-02-24 21:42:00,
2013-02-24 15:52:00,35.0,25.0,-100.00,North,354,4.0,7.0,66,0.00,,,0.00,294.000000,,2013-02-24 21:52:00,
2013-02-24 16:01:00,35.0,25.0,-100.00,North,354,4.0,7.0,66,0.00,,,0.00,294.000000,,2013-02-24 22:01:00,
2013-02-24 16:11:00,35.0,25.0,-100.00,North,354,4.0,7.0,66,0.00,,,0.00,294.000000,,2013-02-24 22:11:00,
2013-02-24 16:21:00,35.0,25.0,-100.00,North,354,4.0,7.0,66,0.00,,,0.00,294.000000,,2013-02-24 22:21:00,
2013-02-24 16:42:00,35.0,26.0,-100.00,North,355,5.0,8.0,69,0.00,,,0.00,250.000000,,2013-02-24 22:42:00,
2013-02-24 16:52:00,35.0,26.0,-100.00,North,355,5.0,8.0,69,0.00,,,0.00,250.000000,,2013-02-24 22:52:00,
2013-02-24 17:02:00,35.0,26.0,-100.00,North,355,5.0,8.0,69,0.00,,,0.00,250.000000,,2013-02-24 23:02:00,
2013-02-24 17:11:00,35.0,26.0,-100.00,North,355,5.0,8.0,69,0.00,,,0.00,250.000000,,2013-02-24 23:11:00,
2013-02-24 17:21:00,35.0,26.0,-100.00,North,355,5.0,8.0,69,0.00,,,0.00,250.000000,,2013-02-24 23:21:00,
2013-02-24 17:42:00,34.0,28.0,-100.00,North,352,4.0,9.0,79,0.00,,,0.00,160.000000,,2013-02-24 23:42:00,
2013-02-24 17:52:00,34.0,28.0,-100.00,North,352,4.0,9.0,79,0.00,,,0.00,160.000000,,2013-02-24 23:52:00,
2013-02-24 18:01:00,34.0,28.0,-100.00,North,352,4.0,9.0,79,0.00,,,0.00,160.000000,,2013-02-25 00:01:00,
2013-02-24 18:11:00,34.0,28.0,-100.00,North,352,4.0,9.0,79,0.00,,,0.00,160.000000,,2013-02-25 00:11:00,
2013-02-24 18:21:00,34.0,28.0,-100.00,North,352,4.0,9.0,79,0.00,,,0.00,160.000000,,2013-02-25 00:21:00,
2013-02-24 18:42:00,33.0,28.0,-100.00,North,359,4.0,9.0,82,0.00,,,0.00,40.000000,,2013-02-25 00:42:00,
2013-02-24 18:52:00,33.0,28.0,-100.00,North,359,4.0,9.0,82,0.00,,,0.00,40.000000,,2013-02-25 00:52:00,
2013-02-24 19:01:00,33.0,28.0,-100.00,North,359,4.0,9.0,82,0.00,,,0.00,40.000000,,2013-02-25 01:01:00,
2013-02-24 19:11:00,33.0,28.0,-100.00,North,359,4.0,9.0,82,0.00,,,0.00,40.000000,,2013-02-25 01:11:00,
2013-02-24 19:21:00,33.0,28.0,-100.00,North,359,4.0,9.0,82,0.00,,,0.00,40.000000,,2013-02-25 01:21:00,
2013-02-24 19:42:00,32.0,28.0,-100.00,North,358,4.0,8.0,86,0.00,,,0.00,1.000000,,2013-02-25 01:42:00,
2013-02-24 19:52:00,32.0,28.0,-100.00,North,358,4.0,8.0,86,0.00,,,0.00,1.000000,,2013-02-25 01:52:00,
2013-02-24 20:01:00,32.0,28.0,-100.00,North,358,4.0,8.0,86,0.00,,,0.00,1.000000,,2013-02-25 02:01:00,
2013-02-24 20:11:00,32.0,28.0,-100.00,North,358,4.0,8.0,86,0.00,,,0.00,1.000000,,2013-02-25 02:11:00,
2013-02-24 20:21:00,32.0,28.0,-100.00,North,358,4.0,8.0,86,0.00,,,0.00,1.000000,,2013-02-25 02:21:00,
2013-02-24 20:42:00,31.0,28.0,-100.00,North,6,3.0,7.0,89,0.00,,,0.00,0.000000,,2013-02-25 02:42:00,
2013-02-24 20:52:00,31.0,28.0,-100.00,North,6,3.0,7.0,89,0.00,,,0.00,0.000000,,2013-02-25 02:52:00,
2013-02-24 21:01:00,31.0,28.0,-100.00,North,6,3.0,7.0,89,0.00,,,0.00,0.000000,,2013-02-25 03:01:00,
2013-02-24 21:11:00,31.0,28.0,-100.00,North,6,3.0,7.0,89,0.00,,,0.00,0.000000,,2013-02-25 03:11:00,
2013-02-24 21:21:00,31.0,28.0,-100.00,North,6,3.0,7.0,89,0.00,,,0.00,0.000000,,2013-02-25 03:21:00,
2013-02-24 21:42:00,31.0,29.0,-100.00,NW,323,2.0,4.0,94,0.00,,,0.00,0.000000,,2013-02-25 03:42:00,
2013-02-24 21:52:00,31.0,29.0,-100.00,NW,323,2.0,4.0,94,0.00,,,0.00,0.000000,,2013-02-25 03:52:00,
2013-02-24 22:01:00,31.0,29.0,-100.00,NW,323,2.0,4.0,94,0.00,,,0.00,0.000000,,2013-02-25 04:01:00,
2013-02-24 22:11:00,31.0,29.0,-100.00,NW,323,2.0,4.0,94,0.00,,,0.00,0.000000,,2013-02-25 04:11:00,
2013-02-24 22:21:00,31.0,29.0,-100.00,NW,323,2.0,4.0,94,0.00,,,0.00,0.000000,,2013-02-25 04:21:00,
2013-02-24 22:42:00,32.0,30.0,-100.00,NNW,335,3.0,5.0,92,0.00,,,0.00,0.000000,,2013-02-25 04:42:00,
2013-02-24 22:52:00,32.0,30.0,-100.00,NNW,335,3.0,5.0,92,0.00,,,0.00,0.000000,,2013-02-25 04:52:00,
2013-02-24 23:01:00,32.0,30.0,-100.00,NNW,335,3.0,5.0,92,0.00,,,0.00,0.000000,,2013-02-25 05:01:00,
2013-02-24 23:11:00,32.0,30.0,-100.00,NNW,335,3.0,5.0,92,0.00,,,0.00,0.000000,,2013-02-25 05:11:00,
2013-02-24 23:22:00,32.0,30.0,-100.00,NNW,335,3.0,5.0,92,0.00,,,0.00,0.000000,,2013-02-25 05:22:00,
2013-02-24 23:42:00,32.0,29.0,-100.00,NNW,339,4.0,7.0,88,0.00,,,0.00,0.000000,,2013-02-25 05:42:00,
2013-02-24 23:52:00,32.0,29.0,-100.00,NNW,339,4.0,7.0,88,0.00,,,0.00,0.000000,,2013-02-25 05:52:00,